sensor_id;sensor_type;location;lat;lon;timestamp;pressure;altitude;pressure_sealevel;temperature;humidity
3444;BME280;1736;52.068;6.968;2023-05-24T00:00:17;101861.63;;;7.45;87.58
3444;BME280;1736;52.068;6.968;2023-05-24T00:02:43;101862.78;;;7.40;87.22
3444;BME280;1736;52.068;6.968;2023-05-24T00:05:10;101852.88;;;7.45;87.48
3444;BME280;1736;52.068;6.968;2023-05-24T00:07:37;101852.88;;;7.45;87.85
3444;BME280;1736;52.068;6.968;2023-05-24T00:10:06;101855.88;;;7.37;86.93
3444;BME280;1736;52.068;6.968;2023-05-24T00:12:33;101854.19;;;7.36;87.36
3444;BME280;1736;52.068;6.968;2023-05-24T00:14:59;101850.06;;;7.31;87.92
3444;BME280;1736;52.068;6.968;2023-05-24T00:17:26;101848.75;;;7.39;87.81
3444;BME280;1736;52.068;6.968;2023-05-24T00:19:54;101851.09;;;7.28;88.04
3444;BME280;1736;52.068;6.968;2023-05-24T00:22:21;101841.09;;;7.18;88.92
3444;BME280;1736;52.068;6.968;2023-05-24T00:24:47;101835.72;;;7.19;88.68
3444;BME280;1736;52.068;6.968;2023-05-24T00:27:15;101830.28;;;7.05;89.39
3444;BME280;1736;52.068;6.968;2023-05-24T00:29:42;101825.66;;;7.10;89.25
3444;BME280;1736;52.068;6.968;2023-05-24T00:32:08;101827.66;;;7.05;89.92
3444;BME280;1736;52.068;6.968;2023-05-24T00:34:35;101835.09;;;6.97;90.56
3444;BME280;1736;52.068;6.968;2023-05-24T00:37:01;101831.69;;;6.95;90.96
3444;BME280;1736;52.068;6.968;2023-05-24T00:39:28;101819.81;;;6.87;90.34
3444;BME280;1736;52.068;6.968;2023-05-24T00:41:54;101816.50;;;6.83;91.47
3444;BME280;1736;52.068;6.968;2023-05-24T00:44:22;101822.06;;;6.77;91.31
3444;BME280;1736;52.068;6.968;2023-05-24T00:46:49;101821.06;;;6.80;91.94
3444;BME280;1736;52.068;6.968;2023-05-24T00:49:15;101820.22;;;6.79;92.46
3444;BME280;1736;52.068;6.968;2023-05-24T00:51:42;101820.28;;;6.78;92.08
3444;BME280;1736;52.068;6.968;2023-05-24T00:54:16;101808.88;;;6.77;91.94
3444;BME280;1736;52.068;6.968;2023-05-24T00:56:42;101805.00;;;6.67;92.03
3444;BME280;1736;52.068;6.968;2023-05-24T00:59:09;101798.84;;;6.67;91.74
3444;BME280;1736;52.068;6.968;2023-05-24T01:01:37;101806.06;;;6.63;92.35
3444;BME280;1736;52.068;6.968;2023-05-24T01:04:05;101809.03;;;6.57;92.77
3444;BME280;1736;52.068;6.968;2023-05-24T01:06:37;101810.00;;;6.55;93.82
3444;BME280;1736;52.068;6.968;2023-05-24T01:09:19;101801.97;;;6.58;93.86
3444;BME280;1736;52.068;6.968;2023-05-24T01:11:59;101805.69;;;6.54;93.40
3444;BME280;1736;52.068;6.968;2023-05-24T01:14:33;101795.66;;;6.60;94.17
3444;BME280;1736;52.068;6.968;2023-05-24T01:17:09;101801.47;;;6.50;94.27
3444;BME280;1736;52.068;6.968;2023-05-24T01:19:47;101802.50;;;6.47;94.88
3444;BME280;1736;52.068;6.968;2023-05-24T01:22:28;101802.69;;;6.43;95.52
3444;BME280;1736;52.068;6.968;2023-05-24T01:25:02;101798.78;;;6.51;96.05
3444;BME280;1736;52.068;6.968;2023-05-24T01:27:33;101808.69;;;6.46;95.28
3444;BME280;1736;52.068;6.968;2023-05-24T01:30:01;101803.50;;;6.45;95.29
3444;BME280;1736;52.068;6.968;2023-05-24T01:32:29;101816.88;;;6.40;95.70
3444;BME280;1736;52.068;6.968;2023-05-24T01:34:55;101812.41;;;6.42;96.63
3444;BME280;1736;52.068;6.968;2023-05-24T01:37:22;101820.31;;;6.42;96.12
3444;BME280;1736;52.068;6.968;2023-05-24T01:39:48;101811.47;;;6.43;96.10
3444;BME280;1736;52.068;6.968;2023-05-24T01:42:25;101809.16;;;6.37;96.44
3444;BME280;1736;52.068;6.968;2023-05-24T01:45:03;101810.22;;;6.33;96.17
3444;BME280;1736;52.068;6.968;2023-05-24T01:47:41;101799.13;;;6.27;97.67
3444;BME280;1736;52.068;6.968;2023-05-24T01:50:17;101807.81;;;6.29;97.74
3444;BME280;1736;52.068;6.968;2023-05-24T01:52:45;101809.75;;;6.25;97.92
3444;BME280;1736;52.068;6.968;2023-05-24T01:55:16;101815.16;;;6.22;97.92
3444;BME280;1736;52.068;6.968;2023-05-24T01:57:45;101808.75;;;6.28;97.85
3444;BME280;1736;52.068;6.968;2023-05-24T02:00:17;101804.22;;;6.30;97.75
3444;BME280;1736;52.068;6.968;2023-05-24T02:02:44;101799.47;;;6.19;97.37
3444;BME280;1736;52.068;6.968;2023-05-24T02:05:11;101802.25;;;6.16;97.73
3444;BME280;1736;52.068;6.968;2023-05-24T02:07:37;101806.13;;;6.09;98.29
3444;BME280;1736;52.068;6.968;2023-05-24T02:10:06;101803.25;;;6.14;98.68
3444;BME280;1736;52.068;6.968;2023-05-24T02:12:39;101802.56;;;6.10;99.64
3444;BME280;1736;52.068;6.968;2023-05-24T02:15:07;101795.41;;;6.12;99.96
3444;BME280;1736;52.068;6.968;2023-05-24T02:17:36;101790.94;;;6.14;100.00
3444;BME280;1736;52.068;6.968;2023-05-24T02:20:03;101794.09;;;6.04;99.50
3444;BME280;1736;52.068;6.968;2023-05-24T02:22:29;101798.38;;;6.06;99.71
3444;BME280;1736;52.068;6.968;2023-05-24T02:24:56;101798.75;;;5.99;99.38
3444;BME280;1736;52.068;6.968;2023-05-24T02:27:22;101804.84;;;5.99;99.71
3444;BME280;1736;52.068;6.968;2023-05-24T02:29:49;101803.56;;;6.08;99.91
3444;BME280;1736;52.068;6.968;2023-05-24T02:32:17;101804.22;;;5.94;99.56
3444;BME280;1736;52.068;6.968;2023-05-24T02:34:44;101797.09;;;5.96;100.00
3444;BME280;1736;52.068;6.968;2023-05-24T02:37:11;101800.94;;;5.89;100.00
3444;BME280;1736;52.068;6.968;2023-05-24T02:39:39;101801.88;;;5.88;100.00
3444;BME280;1736;52.068;6.968;2023-05-24T02:42:06;101802.09;;;5.84;100.00
3444;BME280;1736;52.068;6.968;2023-05-24T02:44:32;101799.63;;;5.79;100.00
3444;BME280;1736;52.068;6.968;2023-05-24T02:46:59;101793.44;;;5.80;100.00
3444;BME280;1736;52.068;6.968;2023-05-24T02:49:26;101799.69;;;5.78;100.00
3444;BME280;1736;52.068;6.968;2023-05-24T02:51:54;101796.00;;;5.82;100.00
3444;BME280;1736;52.068;6.968;2023-05-24T02:54:20;101790.53;;;5.86;100.00
3444;BME280;1736;52.068;6.968;2023-05-24T02:56:47;101798.56;;;5.83;100.00
3444;BME280;1736;52.068;6.968;2023-05-24T02:59:14;101795.56;;;5.72;100.00
3444;BME280;1736;52.068;6.968;2023-05-24T03:01:40;101800.03;;;5.70;100.00
3444;BME280;1736;52.068;6.968;2023-05-24T03:04:13;101798.16;;;5.74;100.00
3444;BME280;1736;52.068;6.968;2023-05-24T03:06:40;101803.69;;;5.68;100.00
3444;BME280;1736;52.068;6.968;2023-05-24T03:09:08;101806.25;;;5.69;100.00
3444;BME280;1736;52.068;6.968;2023-05-24T03:11:34;101801.91;;;5.68;100.00
3444;BME280;1736;52.068;6.968;2023-05-24T03:14:01;101812.66;;;5.63;100.00
3444;BME280;1736;52.068;6.968;2023-05-24T03:16:27;101802.91;;;5.66;100.00
3444;BME280;1736;52.068;6.968;2023-05-24T03:18:54;101803.88;;;5.63;100.00
3444;BME280;1736;52.068;6.968;2023-05-24T03:21:21;101803.75;;;5.66;100.00
3444;BME280;1736;52.068;6.968;2023-05-24T03:23:47;101803.47;;;5.72;100.00
3444;BME280;1736;52.068;6.968;2023-05-24T03:26:15;101802.00;;;5.85;100.00
3444;BME280;1736;52.068;6.968;2023-05-24T03:28:42;101802.84;;;5.86;100.00
3444;BME280;1736;52.068;6.968;2023-05-24T03:31:09;101791.25;;;5.90;100.00
3444;BME280;1736;52.068;6.968;2023-05-24T03:33:36;101794.03;;;5.87;100.00
3444;BME280;1736;52.068;6.968;2023-05-24T03:36:03;101783.34;;;5.90;100.00
3444;BME280;1736;52.068;6.968;2023-05-24T03:38:29;101787.84;;;5.88;100.00
3444;BME280;1736;52.068;6.968;2023-05-24T03:40:57;101779.88;;;5.89;100.00
3444;BME280;1736;52.068;6.968;2023-05-24T03:43:25;101795.38;;;5.95;100.00
3444;BME280;1736;52.068;6.968;2023-05-24T03:45:52;101794.47;;;5.96;100.00
3444;BME280;1736;52.068;6.968;2023-05-24T03:48:18;101790.59;;;6.03;100.00
3444;BME280;1736;52.068;6.968;2023-05-24T03:50:45;101786.19;;;6.04;100.00
3444;BME280;1736;52.068;6.968;2023-05-24T03:53:12;101793.03;;;6.08;100.00
3444;BME280;1736;52.068;6.968;2023-05-24T03:55:39;101793.91;;;6.08;100.00
3444;BME280;1736;52.068;6.968;2023-05-24T03:58:05;101790.47;;;6.06;100.00
3444;BME280;1736;52.068;6.968;2023-05-24T04:00:33;101790.31;;;6.09;100.00
3444;BME280;1736;52.068;6.968;2023-05-24T04:03:00;101790.88;;;6.16;100.00
3444;BME280;1736;52.068;6.968;2023-05-24T04:05:26;101788.66;;;6.25;100.00
3444;BME280;1736;52.068;6.968;2023-05-24T04:07:54;101788.72;;;6.24;100.00
3444;BME280;1736;52.068;6.968;2023-05-24T04:10:20;101797.94;;;6.32;100.00
3444;BME280;1736;52.068;6.968;2023-05-24T04:12:47;101793.03;;;6.43;100.00
3444;BME280;1736;52.068;6.968;2023-05-24T04:15:13;101798.63;;;6.54;100.00
3444;BME280;1736;52.068;6.968;2023-05-24T04:17:41;101791.72;;;6.69;100.00
3444;BME280;1736;52.068;6.968;2023-05-24T04:20:08;101800.66;;;6.83;100.00
3444;BME280;1736;52.068;6.968;2023-05-24T04:22:35;101799.72;;;7.01;100.00
3444;BME280;1736;52.068;6.968;2023-05-24T04:25:01;101805.53;;;7.08;100.00
3444;BME280;1736;52.068;6.968;2023-05-24T04:27:29;101803.13;;;7.20;100.00
3444;BME280;1736;52.068;6.968;2023-05-24T04:29:55;101801.44;;;7.35;100.00
3444;BME280;1736;52.068;6.968;2023-05-24T04:32:22;101807.34;;;7.40;100.00
3444;BME280;1736;52.068;6.968;2023-05-24T04:34:50;101813.84;;;7.50;100.00
3444;BME280;1736;52.068;6.968;2023-05-24T04:37:17;101800.81;;;7.62;100.00
3444;BME280;1736;52.068;6.968;2023-05-24T04:39:44;101803.06;;;7.70;100.00
3444;BME280;1736;52.068;6.968;2023-05-24T04:42:11;101798.75;;;7.84;100.00
3444;BME280;1736;52.068;6.968;2023-05-24T04:44:39;101801.38;;;7.84;100.00
3444;BME280;1736;52.068;6.968;2023-05-24T04:47:07;101793.53;;;7.98;100.00
3444;BME280;1736;52.068;6.968;2023-05-24T04:49:34;101788.50;;;8.09;100.00
3444;BME280;1736;52.068;6.968;2023-05-24T04:52:03;101799.31;;;8.22;100.00
3444;BME280;1736;52.068;6.968;2023-05-24T04:54:30;101803.03;;;8.33;99.30
3444;BME280;1736;52.068;6.968;2023-05-24T04:56:56;101808.47;;;8.46;99.56
3444;BME280;1736;52.068;6.968;2023-05-24T04:59:23;101791.38;;;8.51;99.49
3444;BME280;1736;52.068;6.968;2023-05-24T05:01:50;101809.56;;;8.57;99.44
3444;BME280;1736;52.068;6.968;2023-05-24T05:04:17;101803.78;;;8.80;99.20
3444;BME280;1736;52.068;6.968;2023-05-24T05:06:44;101803.91;;;8.93;98.15
3444;BME280;1736;52.068;6.968;2023-05-24T05:09:11;101795.31;;;9.03;97.67
3444;BME280;1736;52.068;6.968;2023-05-24T05:11:39;101809.44;;;9.18;97.35
3444;BME280;1736;52.068;6.968;2023-05-24T05:14:06;101808.63;;;9.17;96.77
3444;BME280;1736;52.068;6.968;2023-05-24T05:16:33;101808.81;;;9.42;95.91
3444;BME280;1736;52.068;6.968;2023-05-24T05:19:00;101809.19;;;9.22;96.26
3444;BME280;1736;52.068;6.968;2023-05-24T05:21:28;101815.63;;;9.32;95.23
3444;BME280;1736;52.068;6.968;2023-05-24T05:23:57;101814.19;;;9.27;94.88
3444;BME280;1736;52.068;6.968;2023-05-24T05:26:25;101813.66;;;9.36;95.40
3444;BME280;1736;52.068;6.968;2023-05-24T05:28:52;101819.22;;;9.45;94.84
3444;BME280;1736;52.068;6.968;2023-05-24T05:31:18;101821.13;;;9.43;93.69
3444;BME280;1736;52.068;6.968;2023-05-24T05:33:45;101822.94;;;9.57;94.12
3444;BME280;1736;52.068;6.968;2023-05-24T05:36:12;101828.03;;;9.60;92.87
3444;BME280;1736;52.068;6.968;2023-05-24T05:38:38;101838.16;;;9.53;93.22
3444;BME280;1736;52.068;6.968;2023-05-24T05:41:05;101829.19;;;9.56;93.72
3444;BME280;1736;52.068;6.968;2023-05-24T05:43:34;101837.97;;;9.56;93.15
3444;BME280;1736;52.068;6.968;2023-05-24T05:46:00;101828.50;;;9.52;93.24
3444;BME280;1736;52.068;6.968;2023-05-24T05:48:27;101831.72;;;9.43;93.79
3444;BME280;1736;52.068;6.968;2023-05-24T05:50:53;101827.94;;;9.47;94.47
3444;BME280;1736;52.068;6.968;2023-05-24T05:53:20;101822.06;;;9.56;93.78
3444;BME280;1736;52.068;6.968;2023-05-24T05:55:46;101825.50;;;9.58;93.21
3444;BME280;1736;52.068;6.968;2023-05-24T05:58:13;101828.69;;;9.63;92.95
3444;BME280;1736;52.068;6.968;2023-05-24T06:00:41;101828.69;;;9.63;92.63
3444;BME280;1736;52.068;6.968;2023-05-24T06:03:07;101823.75;;;9.85;92.11
3444;BME280;1736;52.068;6.968;2023-05-24T06:05:34;101832.34;;;10.03;91.75
3444;BME280;1736;52.068;6.968;2023-05-24T06:08:00;101832.47;;;10.15;90.79
3444;BME280;1736;52.068;6.968;2023-05-24T06:10:27;101835.69;;;10.06;90.53
3444;BME280;1736;52.068;6.968;2023-05-24T06:12:53;101836.22;;;10.25;90.26
3444;BME280;1736;52.068;6.968;2023-05-24T06:15:20;101833.75;;;10.22;89.76
3444;BME280;1736;52.068;6.968;2023-05-24T06:17:48;101842.22;;;10.56;88.65
3444;BME280;1736;52.068;6.968;2023-05-24T06:20:15;101836.06;;;10.55;88.24
3444;BME280;1736;52.068;6.968;2023-05-24T06:22:42;101835.19;;;10.54;87.51
3444;BME280;1736;52.068;6.968;2023-05-24T06:25:10;101839.50;;;10.70;87.56
3444;BME280;1736;52.068;6.968;2023-05-24T06:27:38;101846.38;;;10.86;86.24
3444;BME280;1736;52.068;6.968;2023-05-24T06:30:06;101835.56;;;11.02;85.66
3444;BME280;1736;52.068;6.968;2023-05-24T06:32:33;101837.78;;;11.08;85.04
3444;BME280;1736;52.068;6.968;2023-05-24T06:35:02;101842.03;;;11.10;85.60
3444;BME280;1736;52.068;6.968;2023-05-24T06:37:28;101844.00;;;11.46;83.81
3444;BME280;1736;52.068;6.968;2023-05-24T06:39:55;101850.94;;;11.73;80.68
3444;BME280;1736;52.068;6.968;2023-05-24T06:42:21;101851.88;;;11.85;80.42
3444;BME280;1736;52.068;6.968;2023-05-24T06:44:48;101850.50;;;11.92;79.43
3444;BME280;1736;52.068;6.968;2023-05-24T06:47:14;101846.56;;;11.85;79.83
3444;BME280;1736;52.068;6.968;2023-05-24T06:49:41;101856.13;;;11.87;79.65
3444;BME280;1736;52.068;6.968;2023-05-24T06:52:09;101857.97;;;11.87;80.13
3444;BME280;1736;52.068;6.968;2023-05-24T06:54:35;101854.78;;;12.18;79.31
3444;BME280;1736;52.068;6.968;2023-05-24T06:57:02;101850.03;;;11.98;78.53
3444;BME280;1736;52.068;6.968;2023-05-24T06:59:29;101851.66;;;11.88;78.52
3444;BME280;1736;52.068;6.968;2023-05-24T07:01:56;101851.47;;;11.91;77.96
3444;BME280;1736;52.068;6.968;2023-05-24T07:04:22;101859.75;;;11.99;78.20
3444;BME280;1736;52.068;6.968;2023-05-24T07:06:49;101853.06;;;11.81;78.62
3444;BME280;1736;52.068;6.968;2023-05-24T07:09:17;101858.31;;;12.31;76.88
3444;BME280;1736;52.068;6.968;2023-05-24T07:11:44;101852.50;;;12.37;76.45
3444;BME280;1736;52.068;6.968;2023-05-24T07:14:10;101850.41;;;12.29;75.95
3444;BME280;1736;52.068;6.968;2023-05-24T07:16:37;101849.47;;;12.18;75.24
3444;BME280;1736;52.068;6.968;2023-05-24T07:19:03;101849.34;;;12.32;76.50
3444;BME280;1736;52.068;6.968;2023-05-24T07:21:30;101858.50;;;12.64;74.81
3444;BME280;1736;52.068;6.968;2023-05-24T07:23:56;101856.66;;;12.41;75.66
3444;BME280;1736;52.068;6.968;2023-05-24T07:26:24;101857.91;;;12.48;75.86
3444;BME280;1736;52.068;6.968;2023-05-24T07:28:50;101856.78;;;12.86;74.38
3444;BME280;1736;52.068;6.968;2023-05-24T07:31:17;101864.66;;;12.88;73.05
3444;BME280;1736;52.068;6.968;2023-05-24T07:33:43;101852.66;;;13.06;73.39
3444;BME280;1736;52.068;6.968;2023-05-24T07:36:10;101853.34;;;13.31;72.27
3444;BME280;1736;52.068;6.968;2023-05-24T07:38:36;101853.72;;;13.38;70.26
3444;BME280;1736;52.068;6.968;2023-05-24T07:41:04;101857.88;;;13.53;70.17
3444;BME280;1736;52.068;6.968;2023-05-24T07:43:33;101868.06;;;13.81;68.80
3444;BME280;1736;52.068;6.968;2023-05-24T07:46:01;101870.28;;;13.98;68.14
3444;BME280;1736;52.068;6.968;2023-05-24T07:48:28;101866.69;;;13.53;68.85
3444;BME280;1736;52.068;6.968;2023-05-24T07:50:54;101860.28;;;13.56;67.69
3444;BME280;1736;52.068;6.968;2023-05-24T07:53:21;101860.84;;;13.26;67.22
3444;BME280;1736;52.068;6.968;2023-05-24T07:55:48;101857.81;;;13.31;68.27
3444;BME280;1736;52.068;6.968;2023-05-24T07:58:15;101868.13;;;13.35;66.83
3444;BME280;1736;52.068;6.968;2023-05-24T08:00:42;101864.84;;;13.32;65.65
3444;BME280;1736;52.068;6.968;2023-05-24T08:03:09;101857.28;;;13.60;66.13
3444;BME280;1736;52.068;6.968;2023-05-24T08:05:38;101862.97;;;13.89;66.85
3444;BME280;1736;52.068;6.968;2023-05-24T08:08:05;101847.22;;;13.86;64.72
3444;BME280;1736;52.068;6.968;2023-05-24T08:10:31;101847.94;;;13.88;64.97
3444;BME280;1736;52.068;6.968;2023-05-24T08:12:58;101854.72;;;13.70;66.05
3444;BME280;1736;52.068;6.968;2023-05-24T08:15:24;101859.59;;;13.98;64.24
3444;BME280;1736;52.068;6.968;2023-05-24T08:17:52;101852.06;;;13.81;65.68
3444;BME280;1736;52.068;6.968;2023-05-24T08:20:19;101852.81;;;13.94;65.20
3444;BME280;1736;52.068;6.968;2023-05-24T08:22:46;101845.47;;;14.51;62.02
3444;BME280;1736;52.068;6.968;2023-05-24T08:25:13;101838.84;;;14.66;61.50
3444;BME280;1736;52.068;6.968;2023-05-24T08:27:40;101838.16;;;14.64;59.77
3444;BME280;1736;52.068;6.968;2023-05-24T08:30:07;101832.00;;;14.84;59.86
3444;BME280;1736;52.068;6.968;2023-05-24T08:32:35;101841.00;;;14.83;60.67
3444;BME280;1736;52.068;6.968;2023-05-24T08:35:04;101832.13;;;14.82;60.56
3444;BME280;1736;52.068;6.968;2023-05-24T08:37:31;101835.78;;;14.81;59.65
3444;BME280;1736;52.068;6.968;2023-05-24T08:39:58;101849.84;;;14.83;60.48
3444;BME280;1736;52.068;6.968;2023-05-24T08:42:24;101835.13;;;14.57;59.96
3444;BME280;1736;52.068;6.968;2023-05-24T08:44:52;101844.72;;;14.60;60.32
3444;BME280;1736;52.068;6.968;2023-05-24T08:47:23;101849.47;;;14.56;60.54
3444;BME280;1736;52.068;6.968;2023-05-24T08:49:50;101851.25;;;14.67;59.83
3444;BME280;1736;52.068;6.968;2023-05-24T08:52:20;101848.63;;;14.45;59.76
3444;BME280;1736;52.068;6.968;2023-05-24T08:54:48;101842.72;;;13.97;60.89
3444;BME280;1736;52.068;6.968;2023-05-24T08:57:15;101844.06;;;14.03;60.36
3444;BME280;1736;52.068;6.968;2023-05-24T08:59:41;101845.03;;;14.02;60.99
3444;BME280;1736;52.068;6.968;2023-05-24T09:02:12;101849.03;;;13.63;61.86
3444;BME280;1736;52.068;6.968;2023-05-24T09:04:40;101851.34;;;13.90;61.11
3444;BME280;1736;52.068;6.968;2023-05-24T09:07:09;101851.84;;;14.06;61.24
3444;BME280;1736;52.068;6.968;2023-05-24T09:09:40;101855.44;;;14.05;61.82
3444;BME280;1736;52.068;6.968;2023-05-24T09:12:10;101854.75;;;14.25;62.39
3444;BME280;1736;52.068;6.968;2023-05-24T09:14:42;101852.19;;;14.12;61.96
3444;BME280;1736;52.068;6.968;2023-05-24T09:17:11;101853.84;;;14.46;61.15
3444;BME280;1736;52.068;6.968;2023-05-24T09:19:42;101852.03;;;14.47;60.07
3444;BME280;1736;52.068;6.968;2023-05-24T09:22:09;101850.53;;;14.54;59.12
3444;BME280;1736;52.068;6.968;2023-05-24T09:24:42;101852.97;;;14.57;59.37
3444;BME280;1736;52.068;6.968;2023-05-24T09:27:09;101847.63;;;14.57;59.43
3444;BME280;1736;52.068;6.968;2023-05-24T09:29:35;101842.97;;;14.70;59.03
3444;BME280;1736;52.068;6.968;2023-05-24T09:32:03;101841.41;;;14.67;60.13
3444;BME280;1736;52.068;6.968;2023-05-24T09:34:37;101849.44;;;14.99;58.93
3444;BME280;1736;52.068;6.968;2023-05-24T09:37:04;101856.69;;;15.08;57.77
3444;BME280;1736;52.068;6.968;2023-05-24T09:39:31;101851.16;;;14.89;58.70
3444;BME280;1736;52.068;6.968;2023-05-24T09:42:00;101850.03;;;14.71;59.51
3444;BME280;1736;52.068;6.968;2023-05-24T09:44:28;101860.88;;;14.58;59.68
3444;BME280;1736;52.068;6.968;2023-05-24T09:47:00;101857.19;;;14.70;60.30
3444;BME280;1736;52.068;6.968;2023-05-24T09:49:29;101850.78;;;14.62;60.12
3444;BME280;1736;52.068;6.968;2023-05-24T09:51:55;101861.72;;;14.59;59.00
3444;BME280;1736;52.068;6.968;2023-05-24T09:54:23;101854.84;;;14.45;59.00
3444;BME280;1736;52.068;6.968;2023-05-24T09:56:50;101849.97;;;14.39;59.11
3444;BME280;1736;52.068;6.968;2023-05-24T09:59:18;101855.19;;;14.41;59.07
3444;BME280;1736;52.068;6.968;2023-05-24T10:01:44;101861.66;;;14.27;58.46
3444;BME280;1736;52.068;6.968;2023-05-24T10:04:11;101855.47;;;14.27;58.77
3444;BME280;1736;52.068;6.968;2023-05-24T10:06:40;101846.13;;;14.21;60.28
3444;BME280;1736;52.068;6.968;2023-05-24T10:09:08;101846.00;;;14.34;59.28
3444;BME280;1736;52.068;6.968;2023-05-24T10:11:35;101854.66;;;14.58;58.90
3444;BME280;1736;52.068;6.968;2023-05-24T10:14:03;101855.88;;;14.65;58.45
3444;BME280;1736;52.068;6.968;2023-05-24T10:16:31;101852.94;;;14.79;59.05
3444;BME280;1736;52.068;6.968;2023-05-24T10:18:58;101850.97;;;14.81;59.23
3444;BME280;1736;52.068;6.968;2023-05-24T10:21:27;101860.81;;;14.27;60.28
3444;BME280;1736;52.068;6.968;2023-05-24T10:23:58;101857.16;;;14.39;60.05
3444;BME280;1736;52.068;6.968;2023-05-24T10:26:28;101863.69;;;14.46;60.08
3444;BME280;1736;52.068;6.968;2023-05-24T10:29:00;101867.72;;;14.40;60.51
3444;BME280;1736;52.068;6.968;2023-05-24T10:31:33;101873.13;;;14.50;60.52
3444;BME280;1736;52.068;6.968;2023-05-24T10:34:03;101863.56;;;14.47;61.00
3444;BME280;1736;52.068;6.968;2023-05-24T10:36:31;101875.00;;;14.81;60.82
3444;BME280;1736;52.068;6.968;2023-05-24T10:38:59;101869.34;;;14.63;59.28
3444;BME280;1736;52.068;6.968;2023-05-24T10:41:38;101885.91;;;14.57;60.38
3444;BME280;1736;52.068;6.968;2023-05-24T10:44:09;101875.09;;;14.48;60.64
3444;BME280;1736;52.068;6.968;2023-05-24T10:47:01;101884.66;;;14.61;60.06
3444;BME280;1736;52.068;6.968;2023-05-24T10:49:27;101882.53;;;14.87;60.06
3444;BME280;1736;52.068;6.968;2023-05-24T10:51:59;101879.03;;;15.07;59.62
3444;BME280;1736;52.068;6.968;2023-05-24T10:54:26;101880.47;;;15.11;58.29
3444;BME280;1736;52.068;6.968;2023-05-24T10:56:53;101880.09;;;14.52;60.67
3444;BME280;1736;52.068;6.968;2023-05-24T10:59:33;101878.66;;;14.80;60.30
3444;BME280;1736;52.068;6.968;2023-05-24T11:02:04;101872.16;;;14.62;58.77
3444;BME280;1736;52.068;6.968;2023-05-24T11:04:36;101887.13;;;14.53;59.05
3444;BME280;1736;52.068;6.968;2023-05-24T11:07:04;101871.44;;;14.49;58.69
3444;BME280;1736;52.068;6.968;2023-05-24T11:09:34;101876.31;;;14.55;57.60
3444;BME280;1736;52.068;6.968;2023-05-24T11:12:02;101871.22;;;14.52;58.69
3444;BME280;1736;52.068;6.968;2023-05-24T11:14:33;101872.75;;;14.65;59.02
3444;BME280;1736;52.068;6.968;2023-05-24T11:17:00;101866.34;;;14.88;56.73
3444;BME280;1736;52.068;6.968;2023-05-24T11:19:32;101873.34;;;15.00;57.88
3444;BME280;1736;52.068;6.968;2023-05-24T11:22:01;101860.78;;;15.32;57.30
3444;BME280;1736;52.068;6.968;2023-05-24T11:24:36;101860.94;;;15.72;56.09
3444;BME280;1736;52.068;6.968;2023-05-24T11:27:03;101858.78;;;15.25;55.84
3444;BME280;1736;52.068;6.968;2023-05-24T11:29:44;101860.78;;;15.44;57.43
3444;BME280;1736;52.068;6.968;2023-05-24T11:32:14;101860.94;;;15.72;56.40
3444;BME280;1736;52.068;6.968;2023-05-24T11:34:43;101851.44;;;15.89;54.20
3444;BME280;1736;52.068;6.968;2023-05-24T11:37:11;101855.69;;;15.61;54.32
3444;BME280;1736;52.068;6.968;2023-05-24T11:39:37;101844.09;;;15.81;55.33
3444;BME280;1736;52.068;6.968;2023-05-24T11:42:05;101855.03;;;15.99;53.91
3444;BME280;1736;52.068;6.968;2023-05-24T11:44:33;101854.78;;;15.81;54.62
3444;BME280;1736;52.068;6.968;2023-05-24T11:47:04;101846.03;;;16.09;54.48
3444;BME280;1736;52.068;6.968;2023-05-24T11:49:31;101848.16;;;16.15;53.36
3444;BME280;1736;52.068;6.968;2023-05-24T11:51:59;101852.69;;;16.54;52.96
3444;BME280;1736;52.068;6.968;2023-05-24T11:54:26;101856.09;;;16.75;52.14
3444;BME280;1736;52.068;6.968;2023-05-24T11:56:53;101842.63;;;16.47;53.29
3444;BME280;1736;52.068;6.968;2023-05-24T11:59:22;101852.69;;;16.73;52.88
3444;BME280;1736;52.068;6.968;2023-05-24T12:01:50;101849.63;;;16.87;52.11
3444;BME280;1736;52.068;6.968;2023-05-24T12:04:29;101857.38;;;16.90;51.97
3444;BME280;1736;52.068;6.968;2023-05-24T12:06:56;101838.91;;;16.97;50.94
3444;BME280;1736;52.068;6.968;2023-05-24T12:09:25;101842.50;;;16.48;52.26
3444;BME280;1736;52.068;6.968;2023-05-24T12:11:52;101847.91;;;16.67;53.19
3444;BME280;1736;52.068;6.968;2023-05-24T12:14:21;101847.47;;;16.13;54.38
3444;BME280;1736;52.068;6.968;2023-05-24T12:16:53;101843.06;;;16.42;53.66
3444;BME280;1736;52.068;6.968;2023-05-24T12:19:21;101852.16;;;16.30;53.70
3444;BME280;1736;52.068;6.968;2023-05-24T12:21:50;101854.41;;;16.74;52.38
3444;BME280;1736;52.068;6.968;2023-05-24T12:24:22;101840.25;;;17.20;52.17
3444;BME280;1736;52.068;6.968;2023-05-24T12:26:50;101838.16;;;16.95;51.69
3444;BME280;1736;52.068;6.968;2023-05-24T12:29:18;101837.16;;;17.24;51.93
3444;BME280;1736;52.068;6.968;2023-05-24T12:31:47;101833.91;;;17.30;50.67
3444;BME280;1736;52.068;6.968;2023-05-24T12:34:15;101840.25;;;17.20;51.42
3444;BME280;1736;52.068;6.968;2023-05-24T12:36:42;101849.59;;;16.19;52.97
3444;BME280;1736;52.068;6.968;2023-05-24T12:39:22;101838.66;;;16.41;52.53
3444;BME280;1736;52.068;6.968;2023-05-24T12:41:51;101839.81;;;16.48;51.64
3444;BME280;1736;52.068;6.968;2023-05-24T12:44:22;101829.00;;;16.97;51.56
3444;BME280;1736;52.068;6.968;2023-05-24T12:46:49;101832.47;;;17.36;50.52
3444;BME280;1736;52.068;6.968;2023-05-24T12:49:17;101843.72;;;17.77;48.60
3444;BME280;1736;52.068;6.968;2023-05-24T12:51:44;101835.19;;;17.45;49.55
3444;BME280;1736;52.068;6.968;2023-05-24T12:54:18;101832.66;;;17.15;50.35
3444;BME280;1736;52.068;6.968;2023-05-24T12:56:45;101833.63;;;17.52;49.50
3444;BME280;1736;52.068;6.968;2023-05-24T12:59:12;101833.91;;;17.49;48.59
3444;BME280;1736;52.068;6.968;2023-05-24T13:01:39;101814.09;;;17.60;49.03
3444;BME280;1736;52.068;6.968;2023-05-24T13:04:06;101835.63;;;17.31;50.81
3444;BME280;1736;52.068;6.968;2023-05-24T13:06:32;101836.72;;;17.38;49.53
3444;BME280;1736;52.068;6.968;2023-05-24T13:08:59;101836.19;;;17.16;50.26
3444;BME280;1736;52.068;6.968;2023-05-24T13:11:26;101837.91;;;17.07;51.16
3444;BME280;1736;52.068;6.968;2023-05-24T13:13:55;101832.53;;;16.79;50.95
3444;BME280;1736;52.068;6.968;2023-05-24T13:16:25;101834.88;;;16.53;52.59
3444;BME280;1736;52.068;6.968;2023-05-24T13:18:51;101835.94;;;16.90;51.94